createdAt,value
2022-12-18T00:02:38.273Z,20.20
2022-12-18T00:06:00.042Z,50.58
2022-12-18T00:09:04.753Z,49.38
2022-12-18T00:15:20.446Z,53.47
2022-12-18T00:18:24.874Z,23.65
2022-12-18T00:21:31.666Z,34.35
2022-12-18T00:24:35.650Z,27.02
2022-12-18T00:27:42.400Z,51.00
2022-12-18T00:34:06.048Z,43.65
2022-12-18T00:37:20.249Z,56.70
2022-12-18T00:40:28.831Z,126.05
2022-12-18T00:50:08.148Z,49.88
2022-12-18T00:53:13.519Z,61.58
2022-12-18T00:59:33.180Z,68.22
2022-12-18T01:02:41.637Z,81.50
2022-12-18T01:05:47.790Z,83.28
2022-12-18T01:12:09.138Z,68.30
2022-12-18T01:15:15.263Z,62.03
2022-12-18T01:18:20.749Z,67.70
2022-12-18T01:21:26.855Z,75.38
2022-12-18T01:24:32.128Z,55.60
2022-12-18T01:30:58.104Z,70.10
2022-12-18T01:34:14.421Z,57.65
2022-12-18T01:40:39.709Z,94.70
2022-12-18T01:47:11.808Z,59.75
2022-12-18T01:50:25.877Z,116.43
2022-12-18T01:56:55.555Z,127.00
2022-12-18T02:00:03.361Z,134.38
2022-12-18T02:10:16.332Z,62.00
2022-12-18T02:13:38.938Z,34.63
2022-12-18T02:20:31.761Z,53.83
2022-12-18T02:30:39.291Z,91.63
2022-12-18T02:33:52.241Z,71.63
2022-12-18T02:47:45.350Z,45.95
2022-12-18T02:55:09.814Z,61.17
2022-12-18T02:58:42.064Z,58.00
2022-12-18T03:02:37.839Z,66.70
2022-12-18T03:09:25.173Z,52.28
2022-12-18T03:16:48.688Z,88.05
2022-12-18T03:23:45.521Z,57.80
2022-12-18T03:27:12.565Z,67.38
2022-12-18T03:34:05.046Z,68.38
2022-12-18T03:37:17.191Z,25.77
2022-12-18T04:14:17.863Z,45.38
2022-12-18T04:34:57.930Z,22.15
2022-12-18T04:38:13.245Z,33.30
2022-12-18T04:41:18.975Z,31.23
2022-12-18T04:44:31.110Z,25.65
2022-12-18T04:51:00.625Z,29.73
2022-12-18T05:04:14.718Z,50.55
2022-12-18T05:07:20.402Z,38.05
2022-12-18T05:10:38.251Z,21.73
2022-12-18T05:13:46.344Z,29.95
2022-12-18T05:17:00.881Z,31.15
2022-12-18T05:27:04.225Z,33.65
2022-12-18T05:43:40.661Z,33.95
2022-12-18T06:13:15.441Z,21.30
2022-12-18T06:16:20.132Z,26.25
2022-12-18T06:56:39.112Z,21.92
2022-12-18T06:59:48.987Z,4.25
2022-12-18T07:02:53.457Z,41.33
2022-12-18T07:05:59.672Z,29.17
2022-12-18T07:09:09.953Z,31.00
2022-12-18T07:12:15.690Z,35.60
2022-12-18T07:18:40.901Z,41.38
2022-12-18T07:25:18.491Z,43.60
2022-12-18T07:28:30.522Z,27.05
2022-12-18T07:31:39.031Z,29.33
2022-12-18T08:06:18.336Z,35.90
2022-12-18T08:09:26.085Z,51.50
2022-12-18T08:12:45.226Z,29.25
2022-12-18T08:15:56.247Z,64.00
2022-12-18T08:19:04.582Z,52.63
2022-12-18T08:22:12.717Z,54.10
2022-12-18T08:28:42.901Z,47.95
2022-12-18T08:31:53.670Z,47.03
2022-12-18T08:45:02.349Z,77.43
2022-12-18T08:48:11.851Z,83.25
2022-12-18T09:02:23.383Z,62.40
2022-12-18T09:05:38.107Z,112.13
2022-12-18T09:08:42.920Z,111.05
2022-12-18T09:39:37.448Z,87.07
2022-12-18T09:46:07.980Z,66.38
2022-12-18T09:49:28.775Z,54.42
2022-12-18T09:52:52.374Z,70.78
2022-12-18T09:59:41.157Z,49.55
2022-12-18T10:06:28.050Z,87.47
2022-12-18T10:14:15.738Z,76.70
2022-12-18T10:17:54.140Z,108.00
2022-12-18T10:21:08.497Z,61.05
2022-12-18T10:27:58.952Z,59.45
2022-12-18T10:31:26.884Z,64.65
2022-12-18T10:34:40.601Z,57.67
2022-12-18T10:38:04.993Z,43.10
2022-12-18T10:44:47.622Z,34.25
2022-12-18T10:47:53.682Z,45.00
2022-12-18T10:51:12.713Z,98.30
2022-12-18T10:57:45.918Z,61.67
2022-12-18T11:18:53.501Z,67.03
2022-12-18T11:44:02.983Z,152.45
2022-12-18T11:47:44.426Z,178.27
2022-12-18T11:51:09.557Z,181.65
2022-12-18T11:57:59.079Z,138.75
2022-12-18T12:01:27.970Z,115.43
2022-12-18T12:04:38.501Z,85.90
2022-12-18T12:07:55.718Z,165.50
2022-12-18T12:11:07.851Z,92.50
2022-12-18T12:14:23.269Z,194.25
2022-12-18T12:18:01.060Z,207.90
2022-12-18T12:21:23.409Z,143.63
2022-12-18T12:28:40.205Z,133.50
2022-12-18T12:32:05.929Z,182.02
2022-12-18T12:35:50.930Z,168.30
2022-12-18T12:39:16.930Z,149.00
2022-12-18T12:43:06.191Z,238.95
2022-12-18T12:46:20.887Z,129.27
2022-12-18T12:49:35.190Z,144.68
2022-12-18T12:56:25.836Z,132.27
2022-12-18T12:59:34.947Z,138.68
2022-12-18T13:06:44.720Z,78.55
2022-12-18T13:10:17.247Z,71.95
2022-12-18T13:13:24.404Z,125.60
2022-12-18T13:16:41.304Z,63.13
2022-12-18T13:19:51.383Z,76.82
2022-12-18T13:26:40.355Z,149.40
2022-12-18T13:30:05.955Z,110.10
2022-12-18T13:33:19.163Z,112.60
2022-12-18T13:36:34.267Z,137.80
2022-12-18T13:39:43.868Z,144.68
2022-12-18T13:43:11.980Z,106.22
2022-12-18T13:46:40.003Z,110.25
2022-12-18T13:53:19.246Z,126.75
2022-12-18T13:56:33.971Z,123.70
2022-12-18T13:59:45.547Z,150.52
2022-12-18T14:02:50.214Z,186.85
2022-12-18T14:06:09.929Z,166.82
2022-12-18T14:13:02.466Z,134.52
2022-12-18T14:16:11.588Z,147.43
2022-12-18T14:22:43.342Z,158.13
2022-12-18T14:25:57.767Z,128.95
2022-12-18T14:29:29.853Z,136.32
2022-12-18T14:39:21.539Z,164.00
2022-12-18T14:42:33.770Z,278.60
2022-12-18T14:45:45.465Z,100.95
2022-12-18T14:48:51.540Z,150.93
2022-12-18T14:52:08.579Z,97.38
2022-12-18T14:55:20.572Z,113.10
2022-12-18T15:02:12.383Z,98.25
2022-12-18T15:05:17.810Z,108.18
2022-12-18T15:15:41.744Z,118.68
2022-12-18T15:18:48.207Z,78.63
2022-12-18T15:21:55.352Z,90.72
2022-12-18T15:25:02.769Z,88.50
2022-12-18T15:28:24.423Z,46.55
2022-12-18T15:31:32.357Z,103.65
2022-12-18T15:34:45.145Z,51.67
2022-12-18T15:37:50.309Z,85.70
2022-12-18T15:40:59.152Z,148.52
2022-12-18T15:44:11.048Z,216.95
2022-12-18T15:47:25.155Z,218.43
2022-12-18T15:50:29.090Z,210.60
2022-12-18T15:53:37.487Z,183.23
2022-12-18T15:57:01.452Z,196.98
2022-12-18T16:00:12.736Z,188.55
2022-12-18T16:03:16.429Z,226.75
2022-12-18T16:06:20.121Z,197.05
2022-12-18T16:09:29.242Z,211.27
2022-12-18T16:12:33.671Z,182.15
2022-12-18T16:15:37.715Z,173.13
2022-12-18T16:18:44.576Z,220.48
2022-12-18T16:21:49.556Z,253.15
2022-12-18T16:24:55.565Z,310.98
2022-12-18T16:28:03.481Z,352.92
2022-12-18T16:31:07.087Z,244.85
2022-12-18T16:34:34.877Z,214.60
2022-12-18T16:37:40.211Z,306.77
2022-12-18T16:41:05.592Z,311.30
2022-12-18T16:44:11.752Z,207.55
2022-12-18T16:47:17.848Z,204.57
2022-12-18T16:50:22.480Z,145.95
2022-12-18T16:53:27.241Z,257.10
2022-12-18T16:56:34.239Z,153.13
2022-12-18T16:59:38.122Z,158.85
2022-12-18T17:02:46.254Z,136.80
2022-12-18T17:05:53.489Z,128.18
2022-12-18T17:09:02.221Z,149.15
2022-12-18T17:12:10.203Z,143.00
2022-12-18T17:15:13.755Z,94.53
2022-12-18T17:18:19.528Z,64.35
2022-12-18T17:21:25.738Z,121.57
2022-12-18T17:24:34.526Z,162.65
2022-12-18T17:27:39.455Z,85.68
2022-12-18T17:30:45.500Z,141.75
2022-12-18T17:33:50.686Z,130.63
2022-12-18T17:36:55.719Z,252.73
2022-12-18T17:40:00.143Z,371.15
2022-12-18T17:43:05.759Z,240.30
2022-12-18T17:46:11.278Z,253.35
2022-12-18T17:49:20.907Z,310.02
2022-12-18T17:52:29.359Z,366.05
2022-12-18T17:55:35.860Z,167.63
2022-12-18T17:58:39.826Z,100.85
2022-12-18T18:01:45.899Z,113.90
2022-12-18T18:04:50.614Z,180.40
2022-12-18T18:07:55.569Z,185.48
2022-12-18T18:11:22.970Z,195.93
2022-12-18T18:14:28.905Z,280.88
2022-12-18T18:17:33.605Z,264.05
2022-12-18T18:20:42.340Z,254.43
2022-12-18T18:26:52.846Z,137.85
2022-12-18T18:29:58.895Z,120.03
2022-12-18T18:33:05.513Z,113.50
2022-12-18T18:36:13.756Z,93.03
2022-12-18T18:39:17.546Z,118.55
2022-12-18T18:42:24.970Z,85.95
2022-12-18T18:45:31.628Z,98.60
2022-12-18T18:48:38.258Z,150.80
2022-12-18T18:51:43.397Z,63.15
2022-12-18T18:55:12.723Z,158.13
2022-12-18T18:58:18.027Z,138.00
2022-12-18T19:01:26.912Z,201.55
2022-12-18T19:07:37.895Z,70.18
2022-12-18T19:10:52.026Z,106.15
2022-12-18T19:14:01.642Z,121.32
2022-12-18T19:17:06.845Z,147.57
2022-12-18T19:23:31.857Z,157.95
2022-12-18T19:26:37.188Z,132.00
2022-12-18T19:29:40.656Z,67.45
2022-12-18T19:32:45.543Z,119.45
2022-12-18T19:35:50.801Z,64.93
2022-12-18T19:38:58.100Z,91.00
2022-12-18T19:42:02.918Z,131.02
2022-12-18T19:45:07.058Z,131.40
2022-12-18T19:48:11.820Z,173.15
2022-12-18T19:51:22.277Z,101.22
2022-12-18T19:54:29.045Z,92.70
2022-12-18T19:57:33.269Z,87.75
2022-12-18T20:00:41.312Z,117.63
2022-12-18T20:03:52.538Z,131.65
2022-12-18T20:07:01.734Z,70.43
2022-12-18T20:10:09.275Z,112.13
2022-12-18T20:13:14.068Z,102.75
2022-12-18T20:16:27.590Z,88.93
2022-12-18T20:19:31.532Z,32.15
2022-12-18T20:22:37.631Z,113.80
2022-12-18T20:25:49.637Z,52.72
2022-12-18T20:28:55.076Z,70.47
2022-12-18T20:32:05.583Z,54.72
2022-12-18T20:35:16.999Z,78.32
2022-12-18T20:38:22.952Z,64.43
2022-12-18T20:41:38.135Z,49.33
2022-12-18T20:44:42.648Z,44.08
2022-12-18T20:47:46.235Z,72.28
2022-12-18T20:50:59.659Z,69.22
2022-12-18T20:54:12.021Z,78.53
2022-12-18T20:57:15.865Z,56.40
2022-12-18T21:00:21.348Z,54.83
2022-12-18T21:03:24.745Z,77.07
2022-12-18T21:06:29.394Z,64.10
2022-12-18T21:09:38.479Z,58.03
2022-12-18T21:12:51.133Z,76.57
2022-12-18T21:16:05.425Z,36.90
2022-12-18T21:19:14.097Z,42.90
2022-12-18T21:22:19.237Z,73.07
2022-12-18T21:25:27.307Z,40.00
2022-12-18T21:28:33.295Z,93.53
2022-12-18T21:31:40.855Z,84.85
2022-12-18T21:34:48.180Z,57.92
2022-12-18T21:38:01.785Z,82.30
2022-12-18T21:41:09.574Z,48.50
2022-12-18T21:44:17.041Z,62.97
2022-12-18T21:47:23.471Z,40.65
2022-12-18T21:50:27.662Z,28.33
2022-12-18T21:53:32.704Z,52.50
2022-12-18T22:00:18.985Z,30.27
2022-12-18T22:06:44.282Z,36.47
2022-12-18T22:09:48.964Z,27.63
2022-12-18T22:12:56.427Z,74.43
2022-12-18T22:15:59.803Z,11.43
2022-12-18T22:19:04.571Z,41.13
2022-12-18T22:22:09.389Z,54.95
2022-12-18T22:25:14.599Z,78.45
2022-12-18T22:28:37.071Z,59.90
2022-12-18T22:31:41.976Z,14.15
2022-12-18T22:35:06.837Z,72.72
2022-12-18T22:38:16.210Z,28.42
2022-12-18T22:41:28.496Z,97.97
2022-12-18T22:44:39.140Z,89.40
2022-12-18T22:51:02.462Z,24.25
2022-12-18T22:57:24.276Z,36.90
2022-12-18T23:00:31.998Z,55.88
2022-12-18T23:03:36.465Z,73.28
2022-12-18T23:10:09.039Z,53.85
2022-12-18T23:19:49.171Z,136.00
2022-12-18T23:22:54.547Z,88.35
2022-12-18T23:26:15.274Z,170.73
2022-12-18T23:29:22.238Z,80.22
2022-12-18T23:42:27.622Z,129.90
2022-12-18T23:49:17.269Z,220.57
2022-12-18T23:52:29.064Z,81.03
2022-12-18T23:55:33.076Z,47.30
2022-12-18T23:58:39.333Z,48.72
